Weather at Bowerman Airport

Public forecast

Using degrees Fahrenheit for public forecast. Weather courtesy of forecast.io.

Current aviation weather report (METAR) for Bowerman Airport

Retrieved 2021/01/21 22:41 UTC (0 seconds ago):

KHQM 212241Z AUTO 07010KT 10SM OVC016 07/04 A3000 RMK AO2 T00720044

Aviation forecast (TAF) for Bowerman Airport

Retrieved 2021/01/21 18:30 UTC (4 hours ago):

TAF KHQM 211727Z 2118/2218 08007KT P6SM SCT010 BKN020 OVC035 FM220000 03005KT P6SM OVC020